Time;durP1;ratioP1;P1;durP2;ratioP2;P2;SDS_P1;SDS_P2;PMS_P1;PMS_P2;Temp;Humidity;BMP_temperature;BMP_pressure;BME280_temperature;BME280_humidity;BME280_pressure;Samples;Min_cycle;Max_cycle;Signal;HPM_P1;HPM_P2
2021/05/29 00:00:55;;;;;;;13.97;12.13;;;11.40;99.90;;;;;;4964102;28;20622;-66
2021/05/29 00:03:23;;;;;;;14.00;12.30;;;11.50;99.90;;;;;;4962478;28;20237;-67
2021/05/29 00:08:18;;;;;;;16.90;13.07;;;11.60;99.90;;;;;;4953802;28;20754;-69
2021/05/29 00:10:50;;;;;;;17.80;14.40;;;11.50;99.90;;;;;;4963492;28;20658;-68
2021/05/29 00:13:16;;;;;;;17.57;13.93;;;11.40;99.90;;;;;;4959065;28;20807;-68
2021/05/29 00:15:42;;;;;;;16.97;15.17;;;11.30;99.90;;;;;;4961623;28;20707;-68
2021/05/29 00:18:08;;;;;;;16.77;14.87;;;11.30;99.90;;;;;;4961168;28;21424;-69
2021/05/29 00:20:39;;;;;;;16.83;14.33;;;11.30;99.90;;;;;;4963280;28;20186;-67
2021/05/29 00:23:05;;;;;;;18.23;15.73;;;11.30;99.90;;;;;;4959433;28;20642;-69
2021/05/29 00:25:31;;;;;;;18.93;15.53;;;11.40;99.90;;;;;;4962886;28;20704;-69
2021/05/29 00:27:57;;;;;;;19.00;15.37;;;11.20;99.90;;;;;;4962704;28;20626;-68
2021/05/29 00:30:23;;;;;;;17.90;15.57;;;11.30;99.90;;;;;;4966056;28;20664;-69
2021/05/29 00:32:49;;;;;;;17.70;15.50;;;11.20;99.90;;;;;;4961829;28;20244;-67
2021/05/29 00:35:14;;;;;;;20.10;15.03;;;11.10;99.90;;;;;;4960111;28;20649;-69
2021/05/29 00:37:40;;;;;;;18.43;16.03;;;11.10;99.90;;;;;;4956444;28;20175;-68
2021/05/29 00:40:08;;;;;;;15.43;13.73;;;11.10;99.90;;;;;;4962576;28;20239;-69
2021/05/29 00:42:34;;;;;;;18.70;14.03;;;11.10;99.90;;;;;;4961095;28;20182;-68
2021/05/29 00:45:00;;;;;;;16.43;12.47;;;11.10;99.90;;;;;;4959984;28;21292;-68
2021/05/29 00:47:28;;;;;;;17.67;13.87;;;11.10;99.90;;;;;;4960984;28;20701;-68
2021/05/29 00:49:56;;;;;;;16.87;12.20;;;11.10;99.90;;;;;;4978620;28;20747;-68
2021/05/29 00:52:25;;;;;;;13.70;12.03;;;11.10;99.90;;;;;;4958282;28;20684;-68
2021/05/29 00:54:51;;;;;;;14.57;12.27;;;11.20;99.90;;;;;;4963311;28;21036;-68
2021/05/29 00:57:20;;;;;;;15.17;11.53;;;11.20;99.90;;;;;;4959171;28;20719;-69
2021/05/29 00:59:46;;;;;;;14.30;10.70;;;11.20;99.90;;;;;;4966972;28;20733;-67
2021/05/29 01:02:15;;;;;;;15.90;11.10;;;11.10;99.90;;;;;;4963673;28;20733;-69
2021/05/29 01:04:41;;;;;;;11.93;10.33;;;11.30;99.90;;;;;;4955911;28;20229;-68
2021/05/29 01:07:13;;;;;;;15.70;11.17;;;11.20;99.90;;;;;;4960748;28;20714;-68
2021/05/29 01:09:43;;;;;;;13.40;12.00;;;11.20;99.90;;;;;;4960668;28;20689;-67
2021/05/29 01:12:11;;;;;;;20.57;15.77;;;11.10;99.90;;;;;;4972634;28;20638;-69
2021/05/29 01:14:41;;;;;;;20.27;16.80;;;11.20;99.90;;;;;;4963031;28;20649;-67
2021/05/29 01:17:07;;;;;;;17.10;14.93;;;11.10;99.90;;;;;;4957681;28;21149;-67
2021/05/29 01:19:32;;;;;;;20.53;16.47;;;11.10;99.90;;;;;;4962541;28;20653;-68
2021/05/29 01:21:58;;;;;;;17.93;15.23;;;11.10;99.90;;;;;;4962510;28;20203;-67
2021/05/29 01:24:25;;;;;;;16.63;13.37;;;11.10;99.90;;;;;;4973384;28;20222;-67
2021/05/29 01:26:53;;;;;;;18.47;14.40;;;11.00;99.90;;;;;;4979690;28;20650;-67
2021/05/29 01:29:19;;;;;;;16.20;14.23;;;11.00;99.90;;;;;;4981672;28;20763;-68
2021/05/29 01:31:58;;;;;;;14.90;12.90;;;11.00;99.90;;;;;;4995645;28;20667;-68
2021/05/29 01:34:26;;;;;;;16.83;13.30;;;10.90;99.90;;;;;;4982385;28;20800;-67
2021/05/29 01:36:52;;;;;;;14.87;12.90;;;10.90;99.90;;;;;;4987768;28;21678;-67
2021/05/29 01:39:24;;;;;;;14.70;12.43;;;10.90;99.90;;;;;;4997615;28;20656;-68
2021/05/29 01:41:52;;;;;;;13.50;11.47;;;10.80;99.90;;;;;;4987257;28;20273;-68
2021/05/29 01:44:18;;;;;;;15.07;11.30;;;10.90;99.90;;;;;;4973531;28;20714;-67
2021/05/29 01:46:44;;;;;;;16.60;12.53;;;10.90;99.90;;;;;;4962428;28;21208;-66
2021/05/29 01:49:11;;;;;;;15.60;12.93;;;10.80;99.90;;;;;;4997401;28;20217;-66
2021/05/29 01:51:37;;;;;;;13.47;11.10;;;10.80;99.90;;;;;;4962805;28;20218;-68
2021/05/29 01:54:06;;;;;;;13.67;10.90;;;10.80;99.90;;;;;;4962632;28;20684;-68
2021/05/29 01:56:32;;;;;;;13.87;11.23;;;10.90;99.90;;;;;;4966875;28;20381;-67
2021/05/29 01:58:57;;;;;;;14.63;11.97;;;10.90;99.90;;;;;;4995260;28;20684;-68
2021/05/29 02:01:23;;;;;;;16.90;11.80;;;10.80;99.90;;;;;;4965006;28;20198;-68
2021/05/29 02:03:48;;;;;;;17.80;13.20;;;10.90;99.90;;;;;;4967096;28;20230;-68
2021/05/29 02:06:15;;;;;;;16.50;12.83;;;10.90;99.90;;;;;;4998411;28;20604;-68
2021/05/29 02:08:42;;;;;;;17.93;14.13;;;10.90;99.90;;;;;;4960888;28;20341;-66
2021/05/29 02:11:07;;;;;;;16.40;12.60;;;11.00;99.90;;;;;;4966618;28;20894;-66
2021/05/29 02:13:37;;;;;;;14.27;10.83;;;10.90;99.90;;;;;;4998906;28;20729;-68
2021/05/29 02:16:09;;;;;;;12.80;10.70;;;10.90;99.90;;;;;;4968378;28;20198;-66
2021/05/29 02:18:35;;;;;;;12.97;10.90;;;10.90;99.90;;;;;;4965404;28;21259;-68
2021/05/29 02:21:07;;;;;;;12.17;9.93;;;10.90;99.90;;;;;;4968214;28;20751;-68
2021/05/29 02:23:39;;;;;;;12.93;10.10;;;10.80;99.90;;;;;;4972858;28;21179;-67
2021/05/29 02:26:13;;;;;;;11.70;9.70;;;10.90;99.90;;;;;;4986394;28;21018;-66
2021/05/29 02:28:42;;;;;;;15.30;10.17;;;10.90;99.90;;;;;;4985803;28;20659;-67
2021/05/29 02:31:09;;;;;;;10.67;9.17;;;10.90;99.90;;;;;;4989376;28;20624;-68
2021/05/29 02:33:35;;;;;;;12.43;9.20;;;10.80;99.90;;;;;;4986193;28;21095;-67
2021/05/29 02:36:03;;;;;;;11.30;8.60;;;10.80;99.90;;;;;;4986760;28;21219;-67
2021/05/29 02:38:30;;;;;;;12.03;8.53;;;10.80;99.90;;;;;;4990172;28;20651;-68
2021/05/29 02:40:57;;;;;;;10.87;9.10;;;10.80;99.90;;;;;;4985566;28;20743;-67
2021/05/29 02:43:24;;;;;;;9.97;8.57;;;10.90;99.90;;;;;;4991686;28;20657;-67
2021/05/29 02:45:50;;;;;;;12.97;9.30;;;10.80;99.90;;;;;;4966857;28;20635;-68
2021/05/29 02:48:16;;;;;;;13.53;9.50;;;10.90;99.90;;;;;;4968364;28;20633;-67
2021/05/29 02:50:43;;;;;;;11.33;8.90;;;10.80;99.90;;;;;;4962050;28;20183;-67
2021/05/29 02:53:10;;;;;;;10.93;9.13;;;10.90;99.90;;;;;;4964864;28;21349;-67
2021/05/29 02:55:38;;;;;;;11.80;9.33;;;10.80;99.90;;;;;;4970290;28;20712;-67
2021/05/29 02:58:04;;;;;;;10.63;8.53;;;10.80;99.90;;;;;;4966194;28;22276;-67
2021/05/29 03:00:36;;;;;;;11.43;9.60;;;10.90;99.90;;;;;;4965482;28;20681;-66
2021/05/29 03:03:03;;;;;;;8.87;7.97;;;10.90;99.90;;;;;;4967870;28;21088;-67
2021/05/29 03:05:30;;;;;;;12.27;9.33;;;10.90;99.90;;;;;;4968735;28;20621;-67
2021/05/29 03:07:55;;;;;;;11.63;8.30;;;10.80;99.90;;;;;;4968696;28;20764;-68
2021/05/29 03:10:23;;;;;;;10.90;8.60;;;10.80;99.90;;;;;;4964476;28;21985;-67
2021/05/29 03:12:53;;;;;;;12.17;8.67;;;10.80;99.90;;;;;;4997079;28;20742;-67
2021/05/29 03:15:21;;;;;;;13.43;9.03;;;10.80;99.90;;;;;;4966832;28;20621;-67
2021/05/29 03:17:49;;;;;;;15.73;10.70;;;10.80;99.90;;;;;;4968566;28;21180;-67
2021/05/29 03:20:22;;;;;;;16.70;12.57;;;10.80;99.90;;;;;;4967399;28;20642;-68
2021/05/29 03:22:47;;;;;;;14.03;12.00;;;10.70;99.90;;;;;;4968809;28;20609;-68
2021/05/29 03:25:14;;;;;;;17.13;13.80;;;10.60;99.90;;;;;;4962650;28;20955;-68
2021/05/29 03:27:43;;;;;;;19.80;15.57;;;10.70;99.90;;;;;;4965762;28;20198;-68
2021/05/29 03:30:15;;;;;;;17.20;14.73;;;10.60;99.90;;;;;;4969282;28;20706;-68
2021/05/29 03:32:41;;;;;;;19.83;15.20;;;10.70;99.90;;;;;;4998672;28;20636;-67
2021/05/29 03:35:09;;;;;;;21.97;15.97;;;10.60;99.90;;;;;;4965528;28;20713;-68
2021/05/29 03:37:35;;;;;;;20.50;16.20;;;10.60;99.90;;;;;;4999394;28;21217;-65
2021/05/29 03:40:00;;;;;;;23.40;17.60;;;10.60;99.90;;;;;;4968669;28;20818;-66
2021/05/29 03:42:26;;;;;;;21.83;18.03;;;10.60;99.90;;;;;;4966570;28;20605;-67
2021/05/29 03:44:55;;;;;;;24.77;18.20;;;10.60;99.90;;;;;;4965082;28;20721;-68
2021/05/29 03:47:20;;;;;;;26.97;19.20;;;10.60;99.90;;;;;;4967336;28;20237;-68
2021/05/29 03:49:46;;;;;;;25.60;19.43;;;10.70;99.90;;;;;;5085400;23;20675;-92
2021/05/29 03:52:13;;;;;;;26.60;20.23;;;10.70;99.90;;;;;;5053833;28;20174;-91
2021/05/29 03:54:44;;;;;;;26.50;19.93;;;10.60;99.90;;;;;;5035576;28;20639;-92
2021/05/29 03:57:19;;;;;;;24.30;19.97;;;10.60;99.90;;;;;;5017430;28;20675;-90
2021/05/29 03:59:47;;;;;;;25.47;19.70;;;10.60;99.90;;;;;;5023268;28;20686;-94
2021/05/29 04:02:13;;;;;;;23.50;19.70;;;10.60;99.90;;;;;;5014112;28;20631;-92
2021/05/29 04:04:39;;;;;;;25.00;18.73;;;10.60;99.90;;;;;;5009996;28;20644;-92
2021/05/29 04:07:05;;;;;;;26.03;19.03;;;10.60;99.90;;;;;;5015563;28;20747;-94
2021/05/29 04:09:31;;;;;;;26.30;20.37;;;10.60;99.90;;;;;;5013612;28;20624;-94
2021/05/29 04:11:57;;;;;;;23.77;18.47;;;10.60;99.90;;;;;;5014849;28;20301;-93
2021/05/29 04:14:23;;;;;;;22.43;18.20;;;10.60;99.90;;;;;;5007926;28;20716;-92
2021/05/29 04:16:49;;;;;;;24.40;17.93;;;10.60;99.90;;;;;;5014176;28;20667;-92
2021/05/29 04:19:15;;;;;;;25.60;20.40;;;10.60;99.90;;;;;;5012380;28;20194;-92
2021/05/29 04:21:41;;;;;;;22.83;17.90;;;10.50;99.90;;;;;;5015742;28;21359;-93
2021/05/29 04:24:07;;;;;;;28.00;20.53;;;10.60;99.90;;;;;;5014819;28;20209;-92
2021/05/29 04:26:33;;;;;;;27.13;20.50;;;10.60;99.90;;;;;;4995411;28;20233;-91
2021/05/29 04:29:01;;;;;;;27.70;20.63;;;10.80;99.90;;;;;;5012717;28;20694;-91
2021/05/29 04:31:26;;;;;;;29.63;20.60;;;10.60;99.90;;;;;;5023632;28;20205;-93
2021/05/29 04:33:52;;;;;;;27.43;22.27;;;10.60;99.90;;;;;;5010337;28;20654;-93
2021/05/29 04:36:18;;;;;;;27.30;21.90;;;10.60;99.90;;;;;;5008538;28;20207;-91
2021/05/29 04:38:43;;;;;;;27.33;21.57;;;10.70;99.90;;;;;;5006762;28;20167;-92
2021/05/29 04:41:12;;;;;;;23.90;19.80;;;10.70;99.90;;;;;;5009521;28;20233;-93
2021/05/29 04:43:38;;;;;;;26.57;21.00;;;10.70;99.90;;;;;;5003722;28;21148;-91
2021/05/29 04:46:04;;;;;;;26.70;20.83;;;10.80;99.90;;;;;;4992411;28;20656;-93
2021/05/29 04:48:32;;;;;;;25.63;20.00;;;10.60;99.90;;;;;;4991914;28;20252;-93
2021/05/29 04:51:15;;;;;;;22.90;18.30;;;10.80;99.90;;;;;;4992148;28;20194;-92
2021/05/29 04:54:01;;;;;;;17.53;14.13;;;10.70;99.90;;;;;;5008077;28;20645;-92
2021/05/29 04:56:27;;;;;;;19.07;14.10;;;10.70;99.90;;;;;;4991464;28;20649;-91
2021/05/29 04:58:52;;;;;;;19.87;14.83;;;10.70;99.90;;;;;;4993387;28;20657;-91
2021/05/29 05:01:18;;;;;;;17.43;13.50;;;10.90;99.90;;;;;;4994166;28;20209;-92
2021/05/29 05:03:49;;;;;;;19.87;14.07;;;10.70;99.90;;;;;;4990801;28;20232;-92
2021/05/29 05:06:15;;;;;;;16.87;12.83;;;10.70;99.90;;;;;;4990145;28;20214;-91
2021/05/29 05:08:40;;;;;;;18.77;14.43;;;10.80;99.90;;;;;;5008104;28;20631;-93
2021/05/29 05:11:06;;;;;;;17.93;13.87;;;10.80;99.90;;;;;;4999171;28;20190;-95
2021/05/29 05:13:31;;;;;;;17.60;12.70;;;10.70;99.90;;;;;;4994078;28;20314;-91
2021/05/29 05:15:57;;;;;;;20.90;13.70;;;10.70;99.90;;;;;;4996753;28;20245;-93
2021/05/29 05:18:23;;;;;;;22.30;13.60;;;10.70;99.90;;;;;;4997927;28;20175;-93
2021/05/29 05:20:52;;;;;;;16.27;13.60;;;10.70;99.90;;;;;;4993186;28;22211;-91
2021/05/29 05:23:21;;;;;;;17.20;13.70;;;10.70;99.90;;;;;;4995584;28;20222;-91
2021/05/29 05:25:48;;;;;;;16.83;14.20;;;10.70;99.90;;;;;;5014956;28;20657;-92
2021/05/29 05:28:14;;;;;;;18.07;14.70;;;10.70;99.90;;;;;;5012713;28;20632;-92
2021/05/29 05:30:41;;;;;;;17.77;13.50;;;10.70;99.90;;;;;;5013767;28;20617;-92
2021/05/29 05:33:07;;;;;;;14.97;12.80;;;10.70;99.90;;;;;;5014436;28;20213;-91
2021/05/29 05:35:32;;;;;;;19.30;13.60;;;10.80;99.90;;;;;;5015717;28;20667;-91
2021/05/29 05:37:58;;;;;;;14.10;12.37;;;10.90;99.90;;;;;;5012162;28;20644;-94
2021/05/29 05:40:24;;;;;;;15.83;12.93;;;10.80;99.90;;;;;;5016795;28;20628;-91
2021/05/29 05:42:50;;;;;;;15.80;11.90;;;10.70;99.90;;;;;;5010788;28;21235;-92
2021/05/29 05:45:17;;;;;;;16.73;12.37;;;10.90;99.90;;;;;;4993803;28;20618;-94
2021/05/29 05:47:44;;;;;;;14.33;12.50;;;10.70;99.90;;;;;;4998780;28;20198;-92
2021/05/29 05:50:10;;;;;;;19.70;14.70;;;10.70;99.90;;;;;;4995821;28;20732;-94
2021/05/29 05:52:43;;;;;;;19.47;15.40;;;10.80;99.90;;;;;;4995943;28;20664;-90
2021/05/29 05:55:10;;;;;;;22.43;16.07;;;10.80;99.90;;;;;;4990606;28;20669;-92
2021/05/29 05:57:36;;;;;;;22.30;16.97;;;10.70;99.90;;;;;;4994884;28;20618;-91
2021/05/29 06:00:09;;;;;;;24.13;18.07;;;10.70;99.90;;;;;;4997117;28;20617;-94
2021/05/29 06:02:35;;;;;;;23.63;18.63;;;10.80;99.90;;;;;;5000576;28;20639;-91
2021/05/29 06:05:03;;;;;;;19.67;16.93;;;10.90;99.90;;;;;;5006385;28;20668;-91
2021/05/29 06:07:29;;;;;;;22.70;18.43;;;10.70;99.90;;;;;;5011949;28;20620;-92
2021/05/29 06:10:00;;;;;;;21.53;17.90;;;10.70;99.90;;;;;;5019241;28;20659;-93
2021/05/29 06:12:26;;;;;;;22.80;17.83;;;10.70;99.90;;;;;;5004350;28;20236;-93
2021/05/29 06:20:20;;;;;;;19.70;16.03;;;10.80;99.90;;;;;;5027356;28;20600;-92
2021/05/29 06:22:45;;;;;;;19.37;14.73;;;10.80;99.90;;;;;;5015644;28;20612;-92
2021/05/29 06:25:13;;;;;;;19.67;15.03;;;10.70;99.90;;;;;;4997772;28;20183;-90
2021/05/29 06:27:38;;;;;;;17.80;14.80;;;10.80;99.90;;;;;;4994633;28;20209;-92
2021/05/29 06:30:06;;;;;;;15.70;13.23;;;10.90;99.90;;;;;;4993797;28;20641;-93
2021/05/29 06:32:32;;;;;;;19.03;14.77;;;10.80;99.90;;;;;;5005101;28;20174;-91
2021/05/29 06:34:58;;;;;;;16.60;12.67;;;10.80;99.90;;;;;;4997640;28;20755;-89
2021/05/29 06:37:23;;;;;;;14.50;12.50;;;10.80;99.90;;;;;;4987479;28;20684;-93
2021/05/29 06:39:49;;;;;;;16.17;12.30;;;10.80;99.90;;;;;;5008204;23;20180;-69
2021/05/29 06:42:15;;;;;;;13.73;12.10;;;10.90;99.90;;;;;;5042517;28;21246;-68
2021/05/29 06:44:41;;;;;;;14.20;10.90;;;10.90;99.90;;;;;;5023735;28;20224;-70
2021/05/29 06:47:06;;;;;;;11.83;10.03;;;10.90;99.90;;;;;;5038465;28;20226;-69
2021/05/29 06:49:35;;;;;;;14.10;10.00;;;10.80;99.90;;;;;;5031777;28;20213;-69
2021/05/29 06:52:05;;;;;;;11.00;9.23;;;10.80;99.90;;;;;;5031837;28;20592;-69
2021/05/29 06:59:58;;;;;;;9.60;8.10;;;10.90;99.90;;;;;;5034665;28;20633;-69
2021/05/29 07:02:24;;;;;;;9.50;8.37;;;10.90;99.90;;;;;;5030151;28;20599;-68
2021/05/29 07:04:52;;;;;;;9.47;8.47;;;10.90;99.90;;;;;;5027628;28;20325;-68
2021/05/29 07:07:18;;;;;;;7.93;6.73;;;10.70;99.90;;;;;;5030625;28;20275;-70
2021/05/29 07:09:44;;;;;;;7.90;7.10;;;11.00;99.90;;;;;;5031881;28;20741;-67
2021/05/29 07:12:10;;;;;;;10.43;6.77;;;11.00;99.90;;;;;;5020694;28;20630;-68
2021/05/29 07:14:35;;;;;;;6.93;6.23;;;11.00;99.90;;;;;;5015027;28;20639;-68
2021/05/29 07:17:03;;;;;;;8.00;6.87;;;11.10;99.90;;;;;;5017868;28;20201;-67
2021/05/29 07:19:29;;;;;;;10.30;6.53;;;11.10;99.90;;;;;;5024346;28;20564;-68
2021/05/29 07:21:54;;;;;;;7.73;6.40;;;11.20;99.90;;;;;;5025745;28;20601;-68
2021/05/29 07:24:21;;;;;;;7.20;6.47;;;11.20;99.90;;;;;;5027270;28;20213;-68
2021/05/29 07:26:47;;;;;;;8.10;7.00;;;11.20;99.90;;;;;;5026700;28;20260;-68
2021/05/29 07:29:13;;;;;;;9.43;7.27;;;11.20;99.90;;;;;;5023972;28;20660;-68
2021/05/29 07:31:39;;;;;;;10.23;6.20;;;11.20;99.90;;;;;;5010951;28;20676;-68
2021/05/29 07:34:05;;;;;;;8.20;6.77;;;11.20;99.90;;;;;;5017406;28;20856;-68
2021/05/29 07:36:30;;;;;;;7.63;6.43;;;11.30;99.90;;;;;;5015742;28;20640;-68
2021/05/29 07:38:56;;;;;;;7.63;6.83;;;11.30;99.90;;;;;;5009634;28;23292;-68
2021/05/29 07:41:22;;;;;;;7.87;7.17;;;11.30;99.90;;;;;;5007012;28;20661;-67
2021/05/29 07:43:48;;;;;;;11.70;7.10;;;11.30;99.90;;;;;;5007215;28;20223;-67
2021/05/29 07:46:16;;;;;;;7.10;6.40;;;11.40;99.90;;;;;;5022375;28;20683;-67
2021/05/29 07:48:41;;;;;;;9.00;7.20;;;11.40;99.90;;;;;;5010081;28;20647;-66
2021/05/29 07:51:07;;;;;;;10.13;7.30;;;11.50;99.90;;;;;;5014240;28;20619;-68
2021/05/29 07:53:37;;;;;;;10.67;7.73;;;11.50;99.90;;;;;;5015301;28;20873;-68
2021/05/29 07:56:06;;;;;;;7.00;6.30;;;11.50;99.90;;;;;;5014921;28;20632;-68
2021/05/29 07:58:31;;;;;;;7.63;6.83;;;11.60;99.90;;;;;;5014800;28;20647;-68
2021/05/29 08:00:57;;;;;;;10.13;6.60;;;11.70;99.90;;;;;;5015393;28;20952;-68
2021/05/29 08:03:25;;;;;;;8.37;6.30;;;11.70;99.90;;;;;;5017642;28;20681;-68
2021/05/29 08:05:52;;;;;;;7.33;6.50;;;11.70;99.90;;;;;;5013617;28;20995;-68
2021/05/29 08:08:19;;;;;;;11.30;9.17;;;11.80;99.90;;;;;;5010206;28;21183;-66
2021/05/29 08:10:47;;;;;;;10.67;9.57;;;11.80;99.90;;;;;;5014481;28;20614;-68
2021/05/29 08:13:12;;;;;;;11.23;9.40;;;11.80;99.90;;;;;;5017907;28;20635;-68
2021/05/29 08:15:39;;;;;;;10.43;9.20;;;11.90;99.90;;;;;;5031852;28;21623;-68
2021/05/29 08:18:04;;;;;;;11.53;10.30;;;11.90;99.90;;;;;;5017387;28;20189;-67
2021/05/29 08:20:31;;;;;;;13.17;9.77;;;12.00;99.90;;;;;;5034943;28;20652;-68
2021/05/29 08:22:56;;;;;;;10.53;9.40;;;12.00;99.90;;;;;;5037420;28;20202;-68
2021/05/29 08:25:22;;;;;;;8.03;7.20;;;12.00;99.90;;;;;;5031301;28;20814;-68
2021/05/29 08:27:47;;;;;;;7.73;7.03;;;12.10;99.90;;;;;;5035648;28;20203;-68
2021/05/29 08:30:13;;;;;;;8.57;7.10;;;12.10;99.90;;;;;;5033207;28;20695;-69
2021/05/29 08:32:39;;;;;;;7.53;6.83;;;12.10;99.90;;;;;;5016839;28;20561;-69
2021/05/29 08:35:07;;;;;;;7.70;6.17;;;12.20;99.90;;;;;;5015850;28;20665;-68
2021/05/29 08:37:33;;;;;;;7.33;5.80;;;12.20;99.90;;;;;;5034499;28;20201;-70
2021/05/29 08:39:58;;;;;;;8.37;6.57;;;12.20;99.90;;;;;;5035662;28;20644;-68
2021/05/29 08:42:24;;;;;;;6.90;5.53;;;12.40;99.90;;;;;;5038120;28;20615;-69
2021/05/29 08:44:51;;;;;;;7.10;5.70;;;12.40;99.90;;;;;;5011799;28;20696;-69
2021/05/29 08:47:19;;;;;;;6.23;5.63;;;12.40;99.90;;;;;;5015613;28;21261;-68
2021/05/29 08:49:45;;;;;;;6.27;5.70;;;12.40;99.90;;;;;;5020206;28;21285;-68
2021/05/29 08:52:11;;;;;;;5.67;5.10;;;12.40;99.90;;;;;;5014289;28;20607;-68
2021/05/29 08:54:37;;;;;;;6.30;5.70;;;12.50;99.90;;;;;;5007670;28;20236;-68
2021/05/29 08:57:03;;;;;;;5.60;5.00;;;12.50;99.90;;;;;;5009883;28;21008;-66
2021/05/29 08:59:28;;;;;;;6.47;4.90;;;12.50;99.90;;;;;;5009314;28;20220;-67
2021/05/29 09:01:54;;;;;;;5.90;5.03;;;12.60;99.90;;;;;;5014023;28;20619;-67
2021/05/29 09:04:20;;;;;;;5.43;4.93;;;12.60;99.90;;;;;;5006776;28;20316;-66
2021/05/29 09:06:48;;;;;;;5.90;5.30;;;12.70;99.90;;;;;;5007467;28;20210;-70
2021/05/29 09:09:15;;;;;;;5.70;5.20;;;12.80;99.90;;;;;;5005079;28;20216;-68
2021/05/29 09:11:52;;;;;;;6.33;5.20;;;12.90;99.90;;;;;;5009945;28;20616;-68
2021/05/29 09:14:26;;;;;;;6.27;5.67;;;13.00;99.90;;;;;;4989064;28;20663;-65
2021/05/29 09:17:18;;;;;;;8.43;7.53;;;13.00;99.90;;;;;;5001312;28;20740;-65
2021/05/29 09:19:54;;;;;;;9.00;8.10;;;13.10;99.90;;;;;;5002645;28;21268;-65
2021/05/29 09:22:23;;;;;;;11.70;9.13;;;13.10;99.90;;;;;;5007726;28;21249;-66
2021/05/29 09:25:12;;;;;;;13.87;10.23;;;13.20;99.90;;;;;;5007225;28;20673;-66
2021/05/29 09:28:02;;;;;;;10.93;9.63;;;13.20;99.90;;;;;;5081152;22;20781;-71
2021/05/29 09:30:40;;;;;;;9.70;8.70;;;13.20;99.90;;;;;;5004703;28;21176;-72
2021/05/29 09:33:23;;;;;;;8.97;8.07;;;13.20;99.90;;;;;;5003296;28;20646;-69
2021/05/29 09:36:10;;;;;;;9.60;8.10;;;13.20;99.90;;;;;;5008342;28;20611;-70
2021/05/29 09:38:40;;;;;;;8.53;7.73;;;13.30;99.90;;;;;;5023051;28;20675;-70
2021/05/29 09:41:19;;;;;;;7.93;7.23;;;13.30;99.90;;;;;;5017658;28;20668;-72
2021/05/29 09:43:59;;;;;;;8.27;7.33;;;13.40;99.90;;;;;;5004736;28;20655;-72
2021/05/29 09:46:27;;;;;;;7.97;7.17;;;13.50;99.90;;;;;;5007511;28;20707;-69
2021/05/29 09:48:58;;;;;;;7.80;7.00;;;13.50;99.90;;;;;;4994834;28;20698;-72
2021/05/29 09:51:31;;;;;;;8.30;7.50;;;13.50;99.90;;;;;;5023517;28;20618;-70
2021/05/29 09:54:08;;;;;;;8.00;7.20;;;13.50;99.90;;;;;;5013823;28;20674;-72
2021/05/29 09:56:42;;;;;;;9.27;7.27;;;13.50;99.90;;;;;;5030896;28;20621;-70
2021/05/29 09:59:09;;;;;;;7.37;6.50;;;13.60;99.90;;;;;;5020395;28;21020;-71
2021/05/29 10:01:43;;;;;;;7.67;6.90;;;13.60;99.90;;;;;;4990577;28;20722;-69
2021/05/29 10:04:11;;;;;;;7.60;6.90;;;13.60;99.90;;;;;;5026867;28;20737;-69
2021/05/29 10:06:37;;;;;;;8.10;7.30;;;13.60;99.90;;;;;;5026209;28;21035;-71
2021/05/29 10:09:06;;;;;;;7.80;7.03;;;13.70;99.90;;;;;;5008567;28;20690;-69
2021/05/29 10:11:35;;;;;;;9.27;7.57;;;13.70;99.90;;;;;;4998217;28;20220;-70
2021/05/29 10:14:02;;;;;;;7.87;7.17;;;13.70;99.90;;;;;;5009019;28;20686;-69
2021/05/29 10:16:28;;;;;;;7.43;6.50;;;13.70;99.90;;;;;;5005806;28;20615;-70
2021/05/29 10:18:58;;;;;;;7.73;6.43;;;13.70;99.90;;;;;;4963621;28;20744;-70
2021/05/29 10:21:30;;;;;;;8.30;7.50;;;13.70;99.90;;;;;;4980743;28;20615;-73
2021/05/29 10:23:57;;;;;;;7.37;6.67;;;13.70;99.90;;;;;;5000356;28;21122;-70
2021/05/29 10:26:22;;;;;;;8.93;7.00;;;13.80;99.90;;;;;;5000947;28;20727;-70
2021/05/29 10:28:48;;;;;;;8.37;7.07;;;13.80;99.90;;;;;;4996646;28;20755;-71
2021/05/29 10:31:14;;;;;;;8.27;7.57;;;13.90;99.90;;;;;;5006568;28;20194;-69
2021/05/29 10:33:47;;;;;;;8.67;7.77;;;13.80;99.90;;;;;;4991654;28;20690;-70
2021/05/29 10:36:37;;;;;;;8.10;7.20;;;13.90;99.90;;;;;;5002397;28;20193;-71
2021/05/29 10:39:06;;;;;;;8.20;7.40;;;13.90;99.90;;;;;;5006341;28;20647;-70
2021/05/29 10:41:52;;;;;;;8.13;7.33;;;13.90;99.90;;;;;;5006144;28;21412;-70
2021/05/29 10:44:41;;;;;;;9.60;7.57;;;13.90;99.90;;;;;;4988988;28;20643;-71
2021/05/29 10:47:13;;;;;;;9.20;7.53;;;14.00;99.90;;;;;;4990267;28;21253;-70
2021/05/29 10:49:48;;;;;;;12.53;8.60;;;13.90;99.90;;;;;;5003165;28;20683;-70
2021/05/29 10:52:35;;;;;;;7.60;6.90;;;14.00;99.90;;;;;;5010868;28;20720;-70
2021/05/29 10:55:10;;;;;;;10.50;6.97;;;14.10;99.90;;;;;;5011818;28;21017;-72
2021/05/29 10:57:58;;;;;;;7.10;6.40;;;14.10;99.90;;;;;;4992036;28;20887;-69
2021/05/29 11:00:35;;;;;;;8.40;7.10;;;14.20;99.90;;;;;;5000796;28;20649;-70
2021/05/29 11:03:16;;;;;;;7.87;7.07;;;14.20;99.90;;;;;;4977019;28;20632;-72
2021/05/29 11:05:47;;;;;;;7.23;6.37;;;14.20;99.90;;;;;;4992180;28;20720;-70
2021/05/29 11:08:51;;;;;;;6.50;5.90;;;14.30;99.90;;;;;;4982934;28;20719;-71
2021/05/29 11:11:35;;;;;;;6.30;5.80;;;14.40;99.90;;;;;;4973947;28;20669;-70
2021/05/29 11:14:11;;;;;;;6.60;5.80;;;14.50;99.90;;;;;;4985556;28;20648;-71
2021/05/29 11:16:45;;;;;;;7.57;6.60;;;14.50;99.90;;;;;;4983822;28;20662;-73
2021/05/29 11:19:12;;;;;;;7.60;5.90;;;14.60;99.90;;;;;;4989206;28;21030;-74
2021/05/29 11:22:17;;;;;;;7.23;5.87;;;14.60;99.90;;;;;;5003703;28;20604;-72
2021/05/29 11:24:46;;;;;;;6.90;6.20;;;14.60;99.90;;;;;;5003117;28;21315;-72
2021/05/29 11:27:23;;;;;;;6.73;5.27;;;14.60;99.90;;;;;;5000843;28;20635;-71
2021/05/29 11:30:02;;;;;;;6.73;6.13;;;14.70;99.90;;;;;;5001701;28;20642;-71
2021/05/29 11:33:23;;;;;;;8.47;6.87;;;14.80;99.90;;;;;;5008922;28;22099;-72
2021/05/29 11:35:51;;;;;;;6.97;5.83;;;14.90;99.90;;;;;;4994836;28;20660;-71
2021/05/29 11:38:24;;;;;;;7.40;6.60;;;14.80;99.90;;;;;;4994032;28;20612;-71
2021/05/29 11:41:20;;;;;;;7.27;6.57;;;14.90;99.90;;;;;;4976707;28;20628;-71
2021/05/29 11:43:51;;;;;;;8.60;7.10;;;15.00;99.90;;;;;;4989360;28;20706;-70
2021/05/29 11:46:26;;;;;;;6.70;6.10;;;15.00;99.90;;;;;;4996318;28;20719;-72
2021/05/29 11:49:04;;;;;;;6.10;5.50;;;15.10;99.90;;;;;;4993091;28;21061;-72
2021/05/29 11:51:38;;;;;;;6.47;5.87;;;15.10;99.90;;;;;;4997749;28;20619;-71
2021/05/29 11:54:13;;;;;;;8.93;8.00;;;15.20;99.90;;;;;;5005265;28;20679;-71
2021/05/29 11:56:45;;;;;;;9.93;8.90;;;15.20;99.90;;;;;;5009594;28;20619;-72
2021/05/29 11:59:16;;;;;;;11.80;10.60;;;15.20;99.90;;;;;;5009238;28;20646;-73
2021/05/29 12:01:51;;;;;;;10.70;9.70;;;15.30;99.90;;;;;;4977503;28;20637;-74
2021/05/29 12:04:25;;;;;;;10.90;9.40;;;15.40;99.90;;;;;;4999866;28;20729;-72
2021/05/29 12:06:54;;;;;;;11.23;10.13;;;15.40;99.90;;;;;;5000162;28;20629;-73
2021/05/29 12:09:41;;;;;;;10.27;9.27;;;15.40;99.90;;;;;;5004745;28;20693;-72
2021/05/29 12:12:09;;;;;;;10.90;9.80;;;15.40;99.90;;;;;;4980999;28;20627;-73
2021/05/29 12:14:39;;;;;;;10.83;9.80;;;15.50;99.90;;;;;;4985768;28;20755;-73
2021/05/29 12:17:08;;;;;;;9.90;9.00;;;15.50;99.90;;;;;;4999346;28;21088;-71
2021/05/29 12:19:39;;;;;;;9.50;8.60;;;15.50;99.90;;;;;;5004817;28;20640;-71
2021/05/29 12:22:13;;;;;;;8.73;7.93;;;15.50;99.90;;;;;;5008315;28;20608;-72
2021/05/29 12:24:42;;;;;;;8.97;7.80;;;15.50;99.90;;;;;;5001904;28;21214;-71
2021/05/29 12:27:26;;;;;;;8.67;7.93;;;15.60;99.90;;;;;;5001362;28;21340;-72
2021/05/29 12:30:00;;;;;;;8.47;7.70;;;15.60;99.90;;;;;;4982563;28;20932;-74
2021/05/29 12:32:38;;;;;;;8.13;7.33;;;15.60;99.90;;;;;;4984545;28;20679;-71
2021/05/29 12:35:26;;;;;;;8.40;7.60;;;15.60;99.90;;;;;;5009554;28;20709;-74
2021/05/29 12:37:52;;;;;;;9.37;8.40;;;15.60;99.90;;;;;;4982140;28;20622;-73
2021/05/29 12:40:17;;;;;;;8.53;7.73;;;15.60;99.90;;;;;;4985741;28;20838;-74
2021/05/29 12:42:49;;;;;;;8.20;7.40;;;15.70;99.90;;;;;;4980026;28;20193;-73
2021/05/29 12:45:17;;;;;;;7.67;6.90;;;15.70;99.90;;;;;;4962084;28;20196;-74
2021/05/29 12:48:04;;;;;;;7.80;7.10;;;15.80;99.90;;;;;;4990099;28;20622;-72
2021/05/29 12:50:38;;;;;;;8.57;7.77;;;15.80;99.90;;;;;;5000374;28;20756;-73
2021/05/29 12:53:14;;;;;;;8.27;7.47;;;15.80;99.90;;;;;;5006841;28;20652;-72
2021/05/29 12:55:42;;;;;;;8.20;7.50;;;15.90;99.90;;;;;;4980459;28;20625;-73
2021/05/29 12:58:23;;;;;;;8.07;7.27;;;16.10;99.90;;;;;;4992866;28;20607;-73
2021/05/29 13:09:11;;;;;;;7.67;6.97;;;16.50;99.90;;;;;;5008325;28;20665;-73